Time;durP1;ratioP1;P1;durP2;ratioP2;P2;SDS_P1;SDS_P2;PMS_P1;PMS_P2;Temp;Humidity;BMP_temperature;BMP_pressure;BME280_temperature;BME280_humidity;BME280_pressure;Samples;Min_cycle;Max_cycle;Signal;HPM_P1;HPM_P2
2021/01/16 09:10:52;;;;;;;54.10;22.07;;;;;;;-6.14;69.17;98997.77;120296;1110;104431;-75
2021/01/16 09:13:24;;;;;;;48.90;21.23;;;;;;;-6.07;69.09;98989.94;119966;1151;104349;-71
2021/01/16 09:15:51;;;;;;;46.87;21.47;;;;;;;-6.08;68.41;98985.63;120044;1151;104445;-72
2021/01/16 09:18:26;;;;;;;52.30;23.40;;;;;;;-6.07;68.79;98985.63;119974;1151;104452;-73
2021/01/16 09:20:54;;;;;;;58.93;24.47;;;;;;;-6.07;68.36;98987.34;120080;1151;104449;-70
2021/01/16 09:23:23;;;;;;;52.13;22.43;;;;;;;-6.05;69.15;98990.79;120036;1150;104505;-73
2021/01/16 09:25:54;;;;;;;54.30;24.80;;;;;;;-6.03;68.50;98983.88;120009;1151;104443;-71
2021/01/16 09:28:51;;;;;;;54.05;24.70;;;;;;;-6.01;68.98;98987.31;119977;1151;104474;-71
2021/01/16 09:31:29;;;;;;;56.80;27.40;;;;;;;-5.96;68.70;98982.09;120057;1150;104342;-79
2021/01/16 09:34:13;;;;;;;60.23;26.70;;;;;;;-5.88;68.68;98982.86;120055;1151;104417;-74
2021/01/16 09:36:40;;;;;;;52.77;23.57;;;;;;;-5.84;69.05;98990.62;120043;1151;104811;-70
2021/01/16 09:39:17;;;;;;;53.73;24.43;;;;;;;-5.79;69.05;98982.80;120020;1150;104348;-72
2021/01/16 09:41:46;;;;;;;55.37;23.30;;;;;;;-5.69;68.66;98984.45;120060;1151;104519;-73
2021/01/16 09:44:14;;;;;;;52.50;24.47;;;;;;;-5.63;69.44;98973.17;120027;1151;104453;-71
2021/01/16 09:46:42;;;;;;;54.23;24.00;;;;;;;-5.64;69.02;98968.86;120089;1151;104456;-72
2021/01/16 09:49:12;;;;;;;53.40;24.57;;;;;;;-5.58;69.01;98971.41;120095;1151;104530;-74
2021/01/16 09:51:40;;;;;;;49.47;23.83;;;;;;;-5.51;69.40;98973.94;120044;1151;104447;-72
2021/01/16 09:54:14;;;;;;;50.77;24.90;;;;;;;-5.46;69.04;98970.42;119660;1151;104442;-72
2021/01/16 09:56:42;;;;;;;51.57;23.23;;;;;;;-5.37;69.37;98974.69;119903;1151;104471;-73
2021/01/16 09:59:12;;;;;;;54.20;23.57;;;;;;;-5.30;68.99;98965.10;120023;1151;104442;-71
2021/01/16 10:01:41;;;;;;;56.10;25.70;;;;;;;-5.27;69.09;98963.33;120017;1151;104506;-77
2021/01/16 10:04:22;;;;;;;50.33;22.37;;;;;;;-5.15;69.19;98969.27;119968;1151;104480;-74
2021/01/16 10:06:49;;;;;;;47.20;20.20;;;;;;;-4.98;69.15;98958.70;119966;1151;104417;-73
2021/01/16 10:09:21;;;;;;;42.25;17.50;;;;;;;-4.88;69.37;98959.45;120006;1150;104342;-73
2021/01/16 10:11:48;;;;;;;40.75;15.55;;;;;;;-4.79;69.12;98959.35;120065;1151;104393;-71
2021/01/16 10:14:17;;;;;;;43.20;17.93;;;;;;;-4.78;69.12;98950.69;120052;1150;104345;-72
2021/01/16 10:16:46;;;;;;;37.40;15.70;;;;;;;-4.75;69.09;98952.41;119980;1151;104453;-79
2021/01/16 10:19:15;;;;;;;38.50;15.95;;;;;;;-4.70;69.09;98954.05;120063;1151;104373;-71
2021/01/16 10:22:01;;;;;;;42.55;19.30;;;;;;;-4.73;68.93;98948.05;120066;1151;104499;-71
2021/01/16 10:24:29;;;;;;;37.23;17.40;;;;;;;-4.82;68.95;98949.87;120020;1151;104387;-71
2021/01/16 10:26:57;;;;;;;37.63;16.30;;;;;;;-4.79;69.12;98936.87;120014;1151;104911;-72
2021/01/16 10:29:37;;;;;;;35.50;15.50;;;;;;;-4.81;68.99;98946.41;120009;1151;104413;-72
2021/01/16 10:32:21;;;;;;;38.57;15.80;;;;;;;-4.81;69.16;98951.59;119996;1151;104348;-71
2021/01/16 10:34:57;;;;;;;36.23;15.43;;;;;;;-4.88;69.01;98947.35;119970;1151;104413;-69
2021/01/16 10:37:29;;;;;;;40.27;17.10;;;;;;;-4.95;68.90;98943.11;119977;1150;104345;-71
2021/01/16 10:40:04;;;;;;;38.20;16.43;;;;;;;-4.97;68.94;98940.55;119981;1151;104573;-70
2021/01/16 10:42:41;;;;;;;38.40;16.67;;;;;;;-4.92;69.03;98937.05;119987;1151;104380;-72
2021/01/16 10:45:09;;;;;;;39.90;17.17;;;;;;;-4.86;69.18;98935.22;119988;1151;104944;-71
2021/01/16 10:47:38;;;;;;;35.80;14.85;;;;;;;-4.75;68.98;98937.67;120002;1151;104469;-72
2021/01/16 10:50:17;;;;;;;34.70;13.70;;;;;;;-4.70;69.00;98930.70;119820;1151;104409;-72
2021/01/16 10:52:46;;;;;;;36.33;13.70;;;;;;;-4.62;69.10;98932.34;119899;1151;104592;-71
2021/01/16 10:55:14;;;;;;;34.30;12.47;;;;;;;-4.60;69.10;98933.17;119796;1151;104387;-74
2021/01/16 10:57:44;;;;;;;35.20;14.17;;;;;;;-4.66;69.07;98940.16;119707;1151;104474;-71
